Time;durP1;ratioP1;P1;durP2;ratioP2;P2;SDS_P1;SDS_P2;PMS_P1;PMS_P2;Temp;Humidity;BMP_temperature;BMP_pressure;BME280_temperature;BME280_humidity;BME280_pressure;Samples;Min_cycle;Max_cycle;Signal;HPM_P1;HPM_P2
2021/09/02 00:00:47;;;;;;;7.93;3.85;;;13.90;99.90;;;;;;5091922;28;20094;-56
2021/09/02 00:03:13;;;;;;;6.32;3.90;;;13.90;99.90;;;;;;5091821;28;20089;-56
2021/09/02 00:05:39;;;;;;;8.20;4.50;;;13.90;99.90;;;;;;5091572;28;20109;-56
2021/09/02 00:08:05;;;;;;;10.13;4.40;;;13.90;99.90;;;;;;5091580;28;20036;-56
2021/09/02 00:10:31;;;;;;;11.88;4.72;;;13.90;99.90;;;;;;5091509;28;20055;-56
2021/09/02 00:12:57;;;;;;;5.95;3.78;;;13.90;99.90;;;;;;5091735;28;20039;-56
2021/09/02 00:15:22;;;;;;;6.40;4.35;;;13.90;99.90;;;;;;5091334;28;20044;-56
2021/09/02 00:17:48;;;;;;;9.85;4.35;;;13.90;99.90;;;;;;5091357;28;20040;-56
2021/09/02 00:20:14;;;;;;;5.85;3.97;;;13.90;99.90;;;;;;5091422;28;20040;-55
2021/09/02 00:22:40;;;;;;;5.85;4.07;;;13.80;99.90;;;;;;5091424;28;20051;-56
2021/09/02 00:25:06;;;;;;;6.75;4.50;;;13.90;99.90;;;;;;5091250;28;20481;-56
2021/09/02 00:27:32;;;;;;;6.72;3.88;;;13.90;99.90;;;;;;5091497;28;20085;-56
2021/09/02 00:29:58;;;;;;;8.13;4.18;;;13.80;99.90;;;;;;5091476;28;20423;-55
2021/09/02 00:32:23;;;;;;;6.32;4.47;;;13.90;99.90;;;;;;5091392;28;20071;-55
2021/09/02 00:34:49;;;;;;;6.88;4.15;;;13.80;99.90;;;;;;5092347;28;20409;-55
2021/09/02 00:37:15;;;;;;;6.28;4.57;;;13.80;99.90;;;;;;5094891;28;20076;-56
2021/09/02 00:39:40;;;;;;;7.70;4.40;;;13.70;99.90;;;;;;5094685;28;20112;-55
2021/09/02 00:42:06;;;;;;;6.75;4.20;;;13.80;99.90;;;;;;5094844;28;20109;-56
2021/09/02 00:44:37;;;;;;;6.65;4.90;;;13.70;99.90;;;;;;5094838;28;20544;-56
2021/09/02 00:47:06;;;;;;;11.40;4.85;;;13.70;99.90;;;;;;5094816;28;20032;-55
2021/09/02 00:49:33;;;;;;;8.68;4.55;;;13.70;99.90;;;;;;5094695;28;20074;-56
2021/09/02 00:52:08;;;;;;;8.13;4.80;;;13.70;99.90;;;;;;5094566;28;20040;-55
2021/09/02 00:54:34;;;;;;;6.70;4.90;;;13.70;99.90;;;;;;5094434;28;20127;-56
2021/09/02 00:57:00;;;;;;;9.90;4.95;;;13.70;99.90;;;;;;5094767;28;20128;-56
2021/09/02 00:59:27;;;;;;;7.57;5.35;;;13.80;99.90;;;;;;5094501;28;20036;-56
2021/09/02 01:01:55;;;;;;;7.53;5.35;;;13.70;99.90;;;;;;5094312;28;20150;-56
2021/09/02 01:04:22;;;;;;;7.50;4.53;;;13.80;99.90;;;;;;5094236;28;20048;-56
2021/09/02 01:06:49;;;;;;;7.85;4.88;;;13.80;99.90;;;;;;5094763;28;20036;-56
2021/09/02 01:09:15;;;;;;;10.85;4.82;;;13.80;99.90;;;;;;5094164;28;20032;-56
2021/09/02 01:11:40;;;;;;;6.57;5.00;;;13.80;99.90;;;;;;5094181;28;20036;-56
2021/09/02 01:14:06;;;;;;;6.95;4.90;;;13.80;99.90;;;;;;5094144;28;20028;-56
2021/09/02 01:16:32;;;;;;;10.70;4.72;;;13.80;99.90;;;;;;5094184;28;20039;-55
2021/09/02 01:18:57;;;;;;;9.35;5.70;;;13.90;99.90;;;;;;5076035;28;20040;-56
2021/09/02 01:21:23;;;;;;;9.73;6.35;;;14.00;99.90;;;;;;5094410;28;20474;-56
2021/09/02 01:23:49;;;;;;;17.67;5.97;;;14.10;99.90;;;;;;5093751;28;20359;-56
2021/09/02 01:26:20;;;;;;;9.18;4.68;;;14.00;99.90;;;;;;5093875;28;20123;-56
2021/09/02 01:28:47;;;;;;;7.65;5.50;;;14.10;99.90;;;;;;5093945;28;20036;-56
2021/09/02 01:31:19;;;;;;;7.45;5.30;;;14.10;99.90;;;;;;5093870;28;20079;-56
2021/09/02 01:33:53;;;;;;;6.85;4.50;;;14.10;99.90;;;;;;5093785;28;20169;-55
2021/09/02 01:36:19;;;;;;;4.82;4.18;;;14.10;99.90;;;;;;5093692;28;20554;-56
2021/09/02 01:38:45;;;;;;;9.30;3.97;;;14.10;99.90;;;;;;5093893;28;20043;-56
2021/09/02 01:41:11;;;;;;;7.85;4.57;;;14.10;99.90;;;;;;5093766;28;20043;-56
2021/09/02 01:43:36;;;;;;;6.00;4.32;;;14.10;99.90;;;;;;5093575;28;20545;-55
2021/09/02 01:46:02;;;;;;;7.60;4.55;;;14.20;99.90;;;;;;5093475;28;20083;-56
2021/09/02 01:48:36;;;;;;;8.32;5.07;;;14.20;99.90;;;;;;5093511;28;20390;-56
2021/09/02 01:51:02;;;;;;;9.40;5.15;;;14.20;99.90;;;;;;5093874;28;20044;-55
2021/09/02 01:53:28;;;;;;;7.22;4.60;;;14.20;99.90;;;;;;5093912;28;20032;-56
2021/09/02 01:55:55;;;;;;;7.25;4.32;;;14.20;99.90;;;;;;5093385;28;20043;-56
2021/09/02 01:58:21;;;;;;;7.30;4.60;;;14.20;99.90;;;;;;5093334;28;20036;-56
2021/09/02 02:00:47;;;;;;;4.88;3.63;;;14.20;99.90;;;;;;5093313;28;20436;-56
2021/09/02 02:03:12;;;;;;;6.10;3.80;;;14.20;99.90;;;;;;5093031;28;20047;-56
2021/09/02 02:05:38;;;;;;;6.88;5.22;;;14.20;99.90;;;;;;5093377;28;20040;-56
2021/09/02 02:08:04;;;;;;;9.32;4.45;;;14.20;99.90;;;;;;5093259;28;20044;-55
2021/09/02 02:10:31;;;;;;;11.05;5.05;;;14.20;99.90;;;;;;5092996;28;20036;-56
2021/09/02 02:13:00;;;;;;;9.85;4.50;;;14.20;99.90;;;;;;5092971;28;20042;-55
2021/09/02 02:15:26;;;;;;;8.18;5.00;;;14.20;99.90;;;;;;5092936;28;20040;-56
2021/09/02 02:17:53;;;;;;;6.97;4.10;;;14.20;99.90;;;;;;5092835;28;20040;-56
2021/09/02 02:20:19;;;;;;;9.23;4.78;;;14.20;99.90;;;;;;5093120;28;20095;-55
2021/09/02 02:22:46;;;;;;;9.20;4.20;;;14.20;99.90;;;;;;5092892;28;20036;-56
2021/09/02 02:25:14;;;;;;;8.52;4.90;;;14.20;99.90;;;;;;5092800;28;20039;-56
2021/09/02 02:27:40;;;;;;;9.00;5.10;;;14.20;99.90;;;;;;5092831;28;20032;-55
2021/09/02 02:30:08;;;;;;;8.48;4.75;;;14.20;99.90;;;;;;5092734;28;20035;-56
2021/09/02 02:32:34;;;;;;;8.35;4.80;;;14.20;99.90;;;;;;5074225;28;20046;-56
2021/09/02 02:35:00;;;;;;;6.57;4.93;;;14.20;99.90;;;;;;5092657;28;20064;-56
2021/09/02 02:37:26;;;;;;;12.45;5.13;;;14.30;99.90;;;;;;5092744;28;20097;-56
2021/09/02 02:39:52;;;;;;;9.63;5.60;;;14.30;99.90;;;;;;5092576;28;20397;-56
2021/09/02 02:42:17;;;;;;;14.70;5.72;;;14.40;99.90;;;;;;5092833;28;20050;-56
2021/09/02 02:44:44;;;;;;;11.55;5.93;;;14.40;99.90;;;;;;5092213;28;20148;-56
2021/09/02 02:47:10;;;;;;;14.30;6.10;;;14.30;99.90;;;;;;5092323;28;20043;-56
2021/09/02 02:49:37;;;;;;;13.00;6.40;;;14.40;99.90;;;;;;5092206;28;20393;-56
2021/09/02 02:52:03;;;;;;;8.20;4.57;;;14.50;99.90;;;;;;5092370;28;20036;-56
2021/09/02 02:54:29;;;;;;;10.52;5.35;;;14.50;99.90;;;;;;5092358;28;20040;-56
2021/09/02 02:56:55;;;;;;;12.98;5.60;;;14.50;99.90;;;;;;5091872;28;20371;-55
2021/09/02 02:59:21;;;;;;;13.50;6.00;;;14.50;99.90;;;;;;5092173;28;20064;-56
2021/09/02 03:01:46;;;;;;;8.23;5.00;;;14.50;99.90;;;;;;5092180;28;20032;-56
2021/09/02 03:04:12;;;;;;;10.93;5.43;;;14.50;99.90;;;;;;5092375;28;20073;-56
2021/09/02 03:06:37;;;;;;;8.45;4.70;;;14.50;99.90;;;;;;5092405;28;20036;-56
2021/09/02 03:09:03;;;;;;;9.23;5.00;;;14.50;99.90;;;;;;5092137;28;20035;-55
2021/09/02 03:11:30;;;;;;;9.75;4.60;;;14.60;99.90;;;;;;5092108;28;20036;-56
2021/09/02 03:13:56;;;;;;;9.13;5.40;;;14.60;99.90;;;;;;5091935;28;20044;-55
2021/09/02 03:16:21;;;;;;;9.00;4.93;;;14.50;99.90;;;;;;5091835;28;20184;-56
2021/09/02 03:18:47;;;;;;;15.10;6.70;;;14.60;99.90;;;;;;5091780;28;20401;-56
2021/09/02 03:21:13;;;;;;;9.43;5.25;;;14.60;99.90;;;;;;5092024;28;20035;-56
2021/09/02 03:23:38;;;;;;;13.25;6.13;;;14.70;99.90;;;;;;5091941;28;20093;-56
2021/09/02 03:26:04;;;;;;;12.95;6.30;;;14.70;99.90;;;;;;5091831;28;20044;-56
2021/09/02 03:28:30;;;;;;;13.27;6.43;;;14.70;99.90;;;;;;5091832;28;20047;-55
2021/09/02 03:30:56;;;;;;;12.32;6.25;;;14.70;99.90;;;;;;5091691;28;20058;-55
2021/09/02 03:33:21;;;;;;;14.52;7.03;;;14.80;99.90;;;;;;5091959;28;20039;-56
2021/09/02 03:35:47;;;;;;;17.77;8.18;;;14.80;99.90;;;;;;5091731;28;20146;-56
2021/09/02 03:38:13;;;;;;;20.05;8.50;;;14.80;99.90;;;;;;5091852;28;20062;-56
2021/09/02 03:40:39;;;;;;;17.60;8.68;;;14.80;99.90;;;;;;5091644;28;20043;-55
2021/09/02 03:43:05;;;;;;;20.42;8.40;;;14.90;99.90;;;;;;5091649;28;20035;-56
2021/09/02 03:45:31;;;;;;;15.77;7.30;;;14.90;99.90;;;;;;5091600;28;20383;-55
2021/09/02 03:47:56;;;;;;;13.90;7.68;;;14.90;99.90;;;;;;5092013;28;20047;-55
2021/09/02 03:50:22;;;;;;;23.27;8.65;;;14.90;99.90;;;;;;5090187;28;20059;-56
2021/09/02 03:52:48;;;;;;;13.68;7.65;;;14.90;99.90;;;;;;5091613;28;20032;-56
2021/09/02 03:55:14;;;;;;;15.63;8.38;;;14.90;99.90;;;;;;5091910;28;20067;-56
2021/09/02 03:57:40;;;;;;;17.92;8.95;;;14.90;99.90;;;;;;5091547;28;20406;-56
2021/09/02 04:00:09;;;;;;;15.57;10.10;;;14.90;99.90;;;;;;5091419;28;20079;-55
2021/09/02 04:02:35;;;;;;;;;;;15.00;99.90;;;;;;5092210;28;20036;-55
2021/09/02 04:05:00;;;;;;;20.92;11.23;;;15.00;99.90;;;;;;5091276;28;20327;-55
2021/09/02 04:07:26;;;;;;;20.58;10.20;;;15.00;99.90;;;;;;5091392;28;20040;-56
2021/09/02 04:09:52;;;;;;;23.38;12.43;;;15.10;99.90;;;;;;5093088;28;20119;-55
2021/09/02 04:12:17;;;;;;;26.05;13.63;;;15.00;99.90;;;;;;5095275;28;20043;-56
2021/09/02 04:14:43;;;;;;;26.40;12.55;;;15.10;99.90;;;;;;5095610;28;20400;-56
2021/09/02 04:17:09;;;;;;;19.10;11.35;;;15.10;99.90;;;;;;5095060;28;20097;-56
2021/09/02 04:19:34;;;;;;;22.88;12.10;;;15.20;99.90;;;;;;5095044;28;20036;-56
2021/09/02 04:22:00;;;;;;;24.38;11.23;;;15.20;99.90;;;;;;5095213;28;20035;-56
2021/09/02 04:24:26;;;;;;;22.17;11.93;;;15.20;99.90;;;;;;5095101;28;20401;-56
2021/09/02 04:26:53;;;;;;;21.48;10.00;;;15.20;99.90;;;;;;5095098;28;20040;-56
2021/09/02 04:29:19;;;;;;;16.70;9.02;;;15.20;99.90;;;;;;5094885;28;20553;-56
2021/09/02 04:31:45;;;;;;;22.83;10.40;;;15.30;99.90;;;;;;5095139;28;20119;-56
2021/09/02 04:34:11;;;;;;;20.63;10.15;;;15.20;99.90;;;;;;5095058;28;20043;-56
2021/09/02 04:36:36;;;;;;;22.67;10.77;;;15.30;99.90;;;;;;5076434;28;20404;-56
2021/09/02 04:39:03;;;;;;;19.73;11.07;;;15.30;99.90;;;;;;5095136;28;20188;-55
2021/09/02 04:41:29;;;;;;;24.65;11.25;;;15.30;99.90;;;;;;5095052;28;20543;-56
2021/09/02 04:43:54;;;;;;;20.63;9.60;;;15.30;99.90;;;;;;5094799;28;20089;-56
2021/09/02 04:46:20;;;;;;;23.63;10.30;;;15.30;99.90;;;;;;5094881;28;20089;-55
2021/09/02 04:48:46;;;;;;;21.50;10.45;;;15.40;99.90;;;;;;5094694;28;20036;-56
2021/09/02 04:51:11;;;;;;;20.17;9.65;;;15.40;99.90;;;;;;5094949;28;20386;-56
2021/09/02 04:53:37;;;;;;;23.30;9.38;;;15.30;99.90;;;;;;5094663;28;20042;-56
2021/09/02 04:56:02;;;;;;;17.38;9.55;;;15.40;99.90;;;;;;5094527;28;20436;-56
2021/09/02 04:58:28;;;;;;;17.08;8.98;;;15.40;99.90;;;;;;5094327;28;20047;-56
2021/09/02 05:00:54;;;;;;;22.58;9.25;;;15.40;99.90;;;;;;5094713;28;20075;-56
2021/09/02 05:03:19;;;;;;;19.27;9.27;;;15.40;99.90;;;;;;5094468;28;20398;-56
2021/09/02 05:05:45;;;;;;;19.60;8.27;;;15.40;99.90;;;;;;5094256;28;20100;-56
2021/09/02 05:08:10;;;;;;;18.60;8.48;;;15.40;99.90;;;;;;5094154;28;20039;-56
2021/09/02 05:10:36;;;;;;;20.85;8.50;;;15.40;99.90;;;;;;5094286;28;20036;-56
2021/09/02 05:13:02;;;;;;;20.73;8.23;;;15.40;99.90;;;;;;5094149;28;20040;-56
2021/09/02 05:15:28;;;;;;;17.60;8.45;;;15.40;99.90;;;;;;5094302;28;20036;-56
2021/09/02 05:17:53;;;;;;;16.05;7.97;;;15.40;99.90;;;;;;5094543;28;20051;-56
2021/09/02 05:20:19;;;;;;;18.23;8.48;;;15.40;99.90;;;;;;5093698;28;20468;-56
2021/09/02 05:22:45;;;;;;;16.63;9.25;;;15.40;99.90;;;;;;5094082;28;20043;-56
2021/09/02 05:25:11;;;;;;;21.95;9.02;;;15.40;99.90;;;;;;5094095;28;20040;-55
2021/09/02 05:27:37;;;;;;;14.23;8.85;;;15.40;99.90;;;;;;5094350;28;20553;-56
2021/09/02 05:30:06;;;;;;;22.08;9.25;;;15.40;99.90;;;;;;5093737;28;20497;-56
2021/09/02 05:32:32;;;;;;;;;;;15.40;99.90;;;;;;5094333;28;20040;-56
2021/09/02 05:34:58;;;;;;;21.52;8.57;;;15.40;99.90;;;;;;5093394;28;20361;-56
2021/09/02 05:37:23;;;;;;;20.70;7.70;;;15.40;99.90;;;;;;5093729;28;20055;-56
2021/09/02 05:39:49;;;;;;;19.15;9.05;;;15.40;99.90;;;;;;5093698;28;20049;-56
2021/09/02 05:42:14;;;;;;;20.65;8.60;;;15.40;99.90;;;;;;5093752;28;20068;-56
2021/09/02 05:44:40;;;;;;;17.98;8.55;;;15.40;99.90;;;;;;5093559;28;20371;-56
2021/09/02 05:47:06;;;;;;;15.98;8.32;;;15.40;99.90;;;;;;5093675;28;20040;-56
2021/09/02 05:49:32;;;;;;;18.05;8.63;;;15.50;99.90;;;;;;5093403;28;20032;-56
2021/09/02 05:51:57;;;;;;;22.40;8.20;;;15.50;99.90;;;;;;5093424;28;20115;-56
2021/09/02 05:54:24;;;;;;;15.40;7.20;;;15.50;99.90;;;;;;5093334;28;20117;-56
2021/09/02 05:56:49;;;;;;;16.42;7.78;;;15.50;99.90;;;;;;5093350;28;20047;-56
2021/09/02 05:59:15;;;;;;;15.50;7.07;;;15.50;99.90;;;;;;5093414;28;20036;-56
2021/09/02 06:01:41;;;;;;;18.83;7.53;;;15.50;99.90;;;;;;5093250;28;20397;-56
2021/09/02 06:04:06;;;;;;;13.43;7.45;;;15.50;99.90;;;;;;5093283;28;20039;-56
2021/09/02 06:06:32;;;;;;;17.17;6.63;;;15.60;99.90;;;;;;5093441;28;20077;-56
2021/09/02 06:08:57;;;;;;;14.48;7.43;;;15.60;99.90;;;;;;5093172;28;20074;-55
2021/09/02 06:11:23;;;;;;;14.35;6.57;;;15.60;99.90;;;;;;5093233;28;20036;-56
2021/09/02 06:13:49;;;;;;;14.57;7.22;;;15.60;99.90;;;;;;5074947;28;20048;-56
2021/09/02 06:16:15;;;;;;;17.08;6.47;;;15.70;99.90;;;;;;5074804;28;20044;-56
2021/09/02 06:18:40;;;;;;;14.77;6.35;;;15.70;99.90;;;;;;5093131;28;20100;-56
2021/09/02 06:21:06;;;;;;;18.98;7.22;;;15.70;99.90;;;;;;5093123;28;20040;-56
2021/09/02 06:23:32;;;;;;;20.33;7.40;;;15.70;99.90;;;;;;5092724;28;20496;-56
2021/09/02 06:25:58;;;;;;;20.63;7.22;;;15.70;99.90;;;;;;5092595;28;20416;-56
2021/09/02 06:28:23;;;;;;;27.15;7.90;;;15.70;99.90;;;;;;5092630;28;20492;-55
2021/09/02 06:30:49;;;;;;;19.13;7.90;;;15.70;99.90;;;;;;5092852;28;20028;-56
2021/09/02 06:33:15;;;;;;;24.73;8.15;;;15.70;99.90;;;;;;5073790;28;20044;-56
2021/09/02 06:35:41;;;;;;;17.83;7.97;;;15.70;99.90;;;;;;5092454;28;20622;-56
2021/09/02 06:38:07;;;;;;;33.80;9.30;;;15.70;99.90;;;;;;5074430;28;20165;-57
2021/09/02 06:40:33;;;;;;;46.50;10.77;;;15.80;99.90;;;;;;5092420;28;20048;-56
2021/09/02 06:42:59;;;;;;;38.25;8.80;;;15.80;99.90;;;;;;5092682;28;20044;-56
2021/09/02 06:45:25;;;;;;;23.85;7.93;;;15.80;99.90;;;;;;5092373;28;20044;-56
2021/09/02 06:47:51;;;;;;;25.77;7.43;;;15.80;99.90;;;;;;5092540;28;20064;-56
2021/09/02 06:50:16;;;;;;;30.48;10.63;;;15.80;99.90;;;;;;5092580;28;20442;-56
2021/09/02 06:52:42;;;;;;;27.90;8.85;;;15.80;99.90;;;;;;5092451;28;20028;-56
2021/09/02 06:55:09;;;;;;;23.63;7.63;;;15.80;99.90;;;;;;5092142;28;20053;-56
2021/09/02 06:57:35;;;;;;;25.38;8.10;;;15.80;99.90;;;;;;5092143;28;20043;-56
2021/09/02 07:00:02;;;;;;;16.73;8.00;;;15.90;99.90;;;;;;5092305;28;20081;-56
2021/09/02 07:02:28;;;;;;;20.25;6.57;;;15.90;99.90;;;;;;5092163;28;20119;-56
2021/09/02 07:04:53;;;;;;;25.27;7.88;;;15.90;99.90;;;;;;5092081;28;20131;-56
2021/09/02 07:07:19;;;;;;;16.90;6.35;;;16.00;99.90;;;;;;5092010;28;20034;-56
2021/09/02 07:09:45;;;;;;;26.02;7.80;;;15.90;99.90;;;;;;5092012;28;20470;-56
2021/09/02 07:12:10;;;;;;;27.75;7.97;;;15.90;99.90;;;;;;5092251;28;20086;-56
2021/09/02 07:14:36;;;;;;;25.38;8.25;;;15.90;99.90;;;;;;5092176;28;20032;-56
2021/09/02 07:17:02;;;;;;;24.02;7.25;;;15.90;99.90;;;;;;5073700;28;20036;-56
2021/09/02 07:19:27;;;;;;;25.70;8.80;;;16.00;99.90;;;;;;5091901;28;20036;-56
2021/09/02 07:21:54;;;;;;;18.02;6.50;;;16.00;99.90;;;;;;5092225;28;20032;-56
2021/09/02 07:24:19;;;;;;;16.38;6.38;;;16.00;99.90;;;;;;5091802;28;20565;-56
2021/09/02 07:26:45;;;;;;;15.85;6.75;;;16.00;99.90;;;;;;5090090;28;20130;-56
2021/09/02 07:29:11;;;;;;;16.40;6.82;;;16.00;99.90;;;;;;5091948;28;20039;-56
2021/09/02 07:31:39;;;;;;;17.73;6.97;;;16.00;99.90;;;;;;5091928;28;20043;-56
2021/09/02 07:34:05;;;;;;;15.40;7.15;;;16.00;99.90;;;;;;5073366;28;20058;-56
2021/09/02 07:36:31;;;;;;;18.52;7.68;;;16.00;99.90;;;;;;5091476;28;20052;-56
2021/09/02 07:38:57;;;;;;;16.30;7.63;;;16.00;99.90;;;;;;5091758;28;20116;-56
2021/09/02 07:41:23;;;;;;;18.33;7.47;;;16.00;99.90;;;;;;5092173;28;20044;-57
2021/09/02 07:43:48;;;;;;;20.35;8.23;;;16.10;99.90;;;;;;5093440;28;20036;-56
2021/09/02 07:46:14;;;;;;;19.40;7.35;;;16.00;99.90;;;;;;5096100;28;20402;-56
2021/09/02 07:48:41;;;;;;;20.83;7.72;;;16.00;99.90;;;;;;5095763;28;20036;-56
2021/09/02 07:51:07;;;;;;;19.83;6.53;;;16.10;99.90;;;;;;5095731;28;20047;-56
2021/09/02 07:53:33;;;;;;;14.70;6.68;;;16.10;99.90;;;;;;5095856;28;20040;-56
2021/09/02 07:55:59;;;;;;;17.48;7.45;;;16.10;99.90;;;;;;5095837;28;20040;-56
2021/09/02 07:58:24;;;;;;;18.75;6.78;;;16.20;99.90;;;;;;5095815;28;20040;-56
2021/09/02 08:00:50;;;;;;;19.88;6.70;;;16.10;99.90;;;;;;5095458;28;20466;-56
2021/09/02 08:03:16;;;;;;;15.50;6.72;;;16.10;99.90;;;;;;5095654;28;20044;-56
2021/09/02 08:05:41;;;;;;;22.08;7.55;;;16.20;99.90;;;;;;5095354;28;20036;-55
2021/09/02 08:08:07;;;;;;;18.38;6.65;;;16.20;99.90;;;;;;5095421;28;20044;-56
2021/09/02 08:10:33;;;;;;;20.75;7.18;;;16.20;99.90;;;;;;5095482;28;20044;-56
2021/09/02 08:12:59;;;;;;;15.32;6.93;;;16.20;99.90;;;;;;5095398;28;20038;-56
2021/09/02 08:15:25;;;;;;;14.43;6.57;;;16.20;99.90;;;;;;5095346;28;20043;-56
2021/09/02 08:17:52;;;;;;;17.42;6.47;;;16.20;99.90;;;;;;5095339;28;20044;-56
2021/09/02 08:20:20;;;;;;;16.52;7.05;;;16.30;99.90;;;;;;5095132;28;20081;-56
2021/09/02 08:22:46;;;;;;;15.02;6.90;;;16.30;99.90;;;;;;5095441;28;20044;-57
2021/09/02 08:25:13;;;;;;;12.23;6.57;;;16.40;99.90;;;;;;5095231;28;20040;-56
2021/09/02 08:27:39;;;;;;;17.88;6.72;;;16.30;99.90;;;;;;5095240;28;20044;-56
2021/09/02 08:30:07;;;;;;;15.82;7.15;;;16.30;99.90;;;;;;5095035;28;20389;-56
2021/09/02 08:32:32;;;;;;;17.80;6.68;;;16.40;99.90;;;;;;5094889;28;20093;-56
2021/09/02 08:34:58;;;;;;;14.45;6.07;;;16.40;99.90;;;;;;5094651;28;20048;-57
2021/09/02 08:37:23;;;;;;;12.63;6.45;;;16.40;99.90;;;;;;5095417;28;20052;-56
2021/09/02 08:39:50;;;;;;;17.17;6.45;;;16.40;99.90;;;;;;5095294;28;20372;-56
2021/09/02 08:42:16;;;;;;;14.07;6.25;;;16.50;99.90;;;;;;5095080;28;20462;-56
2021/09/02 08:44:43;;;;;;;11.32;6.20;;;16.50;99.90;;;;;;5094763;28;20173;-56
2021/09/02 08:47:10;;;;;;;12.60;5.75;;;16.50;99.90;;;;;;5094723;28;20044;-56
2021/09/02 08:49:37;;;;;;;12.07;5.63;;;16.50;99.90;;;;;;5094588;28;20028;-56
2021/09/02 08:52:03;;;;;;;13.68;6.32;;;16.50;99.90;;;;;;5094760;28;20036;-56
2021/09/02 08:54:31;;;;;;;12.30;6.20;;;16.50;99.90;;;;;;5094264;28;20064;-56
2021/09/02 08:56:57;;;;;;;12.35;5.80;;;16.50;99.90;;;;;;5094158;28;20159;-56
2021/09/02 08:59:23;;;;;;;17.33;6.97;;;16.60;99.90;;;;;;5094656;28;20495;-56
2021/09/02 09:01:49;;;;;;;11.27;6.28;;;16.60;99.90;;;;;;5076288;28;20513;-56
2021/09/02 09:04:15;;;;;;;16.33;6.55;;;16.60;99.90;;;;;;5094441;28;20040;-56
2021/09/02 09:06:41;;;;;;;15.30;6.55;;;16.60;99.90;;;;;;5094272;28;20036;-56
2021/09/02 09:09:17;;;;;;;16.35;6.43;;;16.60;99.90;;;;;;5094387;28;20035;-56
2021/09/02 09:11:48;;;;;;;13.18;5.45;;;16.60;99.90;;;;;;5094610;28;20162;-56
2021/09/02 09:14:22;;;;;;;10.07;5.45;;;16.60;99.90;;;;;;5094241;28;20047;-56
2021/09/02 09:16:51;;;;;;;10.75;5.80;;;16.60;99.90;;;;;;5076166;28;20036;-56
2021/09/02 09:19:52;;;;;;;12.38;5.60;;;16.70;99.90;;;;;;5094133;28;20114;-56
2021/09/02 09:22:20;;;;;;;14.98;6.10;;;16.70;99.90;;;;;;5094024;28;20081;-56
2021/09/02 09:24:51;;;;;;;14.67;6.30;;;16.70;99.90;;;;;;5093864;28;20502;-56
2021/09/02 09:27:23;;;;;;;12.38;5.47;;;16.80;99.90;;;;;;5094080;28;20266;-57
2021/09/02 09:30:08;;;;;;;11.00;5.13;;;16.80;99.90;;;;;;5093783;28;20450;-56
2021/09/02 09:32:42;;;;;;;12.15;6.07;;;16.80;99.90;;;;;;5094087;28;20042;-56
2021/09/02 09:35:11;;;;;;;9.60;5.65;;;16.80;99.90;;;;;;5093980;28;20110;-56
2021/09/02 09:37:37;;;;;;;9.18;5.43;;;16.80;99.90;;;;;;5093638;28;20470;-56
2021/09/02 09:40:24;;;;;;;13.10;5.15;;;16.90;99.90;;;;;;5094185;28;20040;-56
2021/09/02 09:43:06;;;;;;;16.08;4.95;;;16.90;99.90;;;;;;5094113;28;20040;-56
2021/09/02 09:45:36;;;;;;;11.13;5.18;;;16.90;99.90;;;;;;5093568;28;20394;-56
2021/09/02 09:48:02;;;;;;;12.57;5.28;;;16.90;99.90;;;;;;5093444;28;20380;-56
2021/09/02 09:50:27;;;;;;;14.60;5.45;;;16.90;99.90;;;;;;5093662;28;20032;-56
2021/09/02 09:52:53;;;;;;;12.77;5.13;;;17.00;99.90;;;;;;5093461;28;20435;-56
2021/09/02 09:55:20;;;;;;;14.77;6.13;;;17.00;99.90;;;;;;5093560;28;20032;-56
2021/09/02 09:57:47;;;;;;;12.90;5.07;;;17.00;99.90;;;;;;5093372;28;20051;-56
2021/09/02 10:00:15;;;;;;;10.25;4.90;;;17.00;99.90;;;;;;5093263;28;20443;-56
2021/09/02 10:02:49;;;;;;;13.40;5.38;;;17.00;99.90;;;;;;5093664;28;20040;-56
2021/09/02 10:05:16;;;;;;;11.10;5.28;;;17.10;99.90;;;;;;5075491;28;20456;-56
2021/09/02 10:07:44;;;;;;;12.27;5.50;;;17.00;99.90;;;;;;5093469;28;20032;-56
2021/09/02 10:10:13;;;;;;;13.07;5.65;;;17.00;99.90;;;;;;5093325;28;20112;-56
2021/09/02 10:12:42;;;;;;;14.55;5.50;;;17.00;99.90;;;;;;5093184;28;20036;-56
2021/09/02 10:15:15;;;;;;;12.65;6.35;;;17.00;99.90;;;;;;5093119;28;20044;-56
2021/09/02 10:17:42;;;;;;;17.95;6.03;;;17.10;99.90;;;;;;5092938;28;20075;-56
2021/09/02 10:20:16;;;;;;;16.00;7.70;;;17.00;99.90;;;;;;5092873;28;20040;-56
2021/09/02 10:22:43;;;;;;;14.40;6.35;;;17.10;99.90;;;;;;5093039;28;20442;-56
2021/09/02 10:25:32;;;;;;;14.93;6.38;;;17.00;99.90;;;;;;5092817;28;20036;-56
2021/09/02 10:28:02;;;;;;;13.32;6.55;;;17.10;99.90;;;;;;5079968;28;20455;-56
2021/09/02 10:30:28;;;;;;;10.70;5.72;;;17.10;99.90;;;;;;5093059;28;20040;-56
2021/09/02 10:32:56;;;;;;;17.65;7.80;;;17.10;99.90;;;;;;5074409;28;20087;-56
2021/09/02 10:35:24;;;;;;;13.63;6.00;;;17.10;99.90;;;;;;5092690;28;20063;-56
2021/09/02 10:37:52;;;;;;;14.60;6.13;;;17.20;99.90;;;;;;5092965;28;20043;-56
2021/09/02 10:40:17;;;;;;;16.77;6.43;;;17.20;99.90;;;;;;5074559;28;20044;-57
2021/09/02 10:42:56;;;;;;;13.30;6.47;;;17.20;99.90;;;;;;5092704;28;20451;-56
2021/09/02 10:45:24;;;;;;;12.25;6.78;;;17.30;99.90;;;;;;5092304;28;20478;-56
2021/09/02 10:47:54;;;;;;;19.45;6.35;;;17.30;99.90;;;;;;5091330;28;20118;-56
2021/09/02 10:50:26;;;;;;;12.77;5.63;;;17.30;99.90;;;;;;5092296;28;20032;-56
2021/09/02 10:52:52;;;;;;;11.60;5.82;;;17.30;99.90;;;;;;5092564;28;20040;-56
2021/09/02 10:55:33;;;;;;;12.18;6.05;;;17.30;99.90;;;;;;5092402;28;20131;-56
2021/09/02 10:58:01;;;;;;;17.95;6.35;;;17.40;99.90;;;;;;5092223;28;20042;-56
2021/09/02 11:00:38;;;;;;;13.00;6.03;;;17.40;99.90;;;;;;5092294;28;20442;-56
2021/09/02 11:03:13;;;;;;;13.18;5.97;;;17.40;99.90;;;;;;5092173;28;20542;-56
2021/09/02 11:05:57;;;;;;;13.38;6.18;;;17.40;99.90;;;;;;5092037;28;20040;-56
2021/09/02 11:08:37;;;;;;;11.48;5.90;;;17.40;99.90;;;;;;5092252;28;20032;-56
2021/09/02 11:11:16;;;;;;;10.80;5.88;;;17.30;99.90;;;;;;5092377;28;20105;-56
2021/09/02 11:13:44;;;;;;;13.73;5.35;;;17.40;99.90;;;;;;5092242;28;20031;-56
2021/09/02 11:16:15;;;;;;;12.10;5.97;;;17.40;99.90;;;;;;5092356;28;20047;-56
2021/09/02 11:18:41;;;;;;;14.23;5.68;;;17.30;99.90;;;;;;5091455;28;20075;-56
2021/09/02 11:21:23;;;;;;;11.50;6.57;;;17.30;99.90;;;;;;5090830;28;20035;-56
2021/09/02 11:24:06;;;;;;;12.73;6.00;;;17.30;99.90;;;;;;5091814;28;20123;-57
2021/09/02 11:26:41;;;;;;;12.70;6.22;;;17.30;99.90;;;;;;5091920;28;20048;-56
2021/09/02 11:29:20;;;;;;;12.05;6.07;;;17.30;99.90;;;;;;5091930;28;20036;-56
2021/09/02 11:31:58;;;;;;;12.23;5.97;;;17.40;99.90;;;;;;5091809;28;20085;-56
2021/09/02 11:34:24;;;;;;;14.57;5.40;;;17.30;99.90;;;;;;5091816;28;20040;-56
2021/09/02 11:36:50;;;;;;;12.95;6.00;;;17.40;99.90;;;;;;5091720;28;20648;-56
2021/09/02 11:39:15;;;;;;;10.00;5.40;;;17.40;99.90;;;;;;5091923;28;20389;-56
2021/09/02 11:41:41;;;;;;;14.85;6.18;;;17.40;99.90;;;;;;5091905;28;20044;-56
2021/09/02 11:44:17;;;;;;;16.65;6.63;;;17.50;99.90;;;;;;5091839;28;20435;-56
2021/09/02 11:46:43;;;;;;;11.38;6.60;;;17.50;99.90;;;;;;5091673;28;20036;-56
2021/09/02 11:49:16;;;;;;;11.95;6.00;;;17.60;99.90;;;;;;5091927;28;20078;-57
2021/09/02 11:51:42;;;;;;;9.73;5.28;;;17.60;99.90;;;;;;5073454;28;20093;-56
2021/09/02 11:54:09;;;;;;;9.50;5.20;;;17.70;99.90;;;;;;5091775;28;20040;-56
2021/09/02 11:56:36;;;;;;;11.70;5.40;;;17.70;99.90;;;;;;5091690;28;20048;-56
2021/09/02 11:59:07;;;;;;;12.98;5.60;;;17.80;99.90;;;;;;5091594;28;20069;-56
2021/09/02 12:01:40;;;;;;;8.90;5.03;;;17.80;99.90;;;;;;5073573;28;20359;-56
2021/09/02 12:04:05;;;;;;;11.00;5.82;;;17.80;99.90;;;;;;5091635;28;20047;-56
2021/09/02 12:06:32;;;;;;;11.80;6.00;;;17.80;99.90;;;;;;5091476;28;20036;-56
2021/09/02 12:09:00;;;;;;;11.45;6.05;;;17.80;99.90;;;;;;5091780;28;20032;-56
2021/09/02 12:11:27;;;;;;;13.82;6.38;;;17.80;99.90;;;;;;5091561;28;20534;-57
2021/09/02 12:13:57;;;;;;;11.63;6.18;;;17.80;99.90;;;;;;5091379;28;20490;-56
2021/09/02 12:16:31;;;;;;;12.45;5.97;;;17.90;99.90;;;;;;5073504;28;20481;-56
2021/09/02 12:19:01;;;;;;;11.98;5.82;;;17.90;99.90;;;;;;5091621;28;20051;-57
2021/09/02 12:21:30;;;;;;;9.18;6.20;;;17.90;99.90;;;;;;5091349;28;20043;-57
2021/09/02 12:23:57;;;;;;;13.68;5.80;;;17.90;99.90;;;;;;5091676;28;20044;-56
2021/09/02 12:26:24;;;;;;;12.73;6.18;;;18.00;99.90;;;;;;5091238;28;20052;-56
2021/09/02 12:28:54;;;;;;;13.13;5.82;;;17.90;99.90;;;;;;5091422;28;20044;-57
2021/09/02 12:31:24;;;;;;;9.20;5.95;;;17.90;99.90;;;;;;5074835;28;20040;-57
2021/09/02 12:33:57;;;;;;;11.38;6.00;;;18.00;99.90;;;;;;5095011;28;20046;-56
2021/09/02 12:36:23;;;;;;;11.48;5.65;;;18.00;99.90;;;;;;5094817;28;20059;-56
2021/09/02 12:38:49;;;;;;;16.83;6.25;;;18.00;99.90;;;;;;5094864;28;20040;-56